createdAt,value
2022-11-16T00:00:24.690Z,74.61
2022-11-16T00:02:55.764Z,74.51
2022-11-16T00:05:28.579Z,74.49
2022-11-16T00:08:00.517Z,74.38
2022-11-16T00:10:31.371Z,74.41
2022-11-16T00:13:02.238Z,73.99
2022-11-16T00:15:33.090Z,74.57
2022-11-16T00:18:03.948Z,74.85
2022-11-16T00:20:34.840Z,74.57
2022-11-16T00:23:06.283Z,74.70
2022-11-16T00:25:37.787Z,74.81
2022-11-16T00:28:08.671Z,74.84
2022-11-16T00:30:39.842Z,75.04
2022-11-16T00:33:12.604Z,74.54
2022-11-16T00:35:43.491Z,74.70
2022-11-16T00:38:14.875Z,74.76
2022-11-16T00:40:46.531Z,74.28
2022-11-16T00:43:17.421Z,74.48
2022-11-16T00:45:48.346Z,74.30
2022-11-16T00:48:19.311Z,74.94
2022-11-16T00:50:50.475Z,75.01
2022-11-16T00:53:23.018Z,74.40
2022-11-16T00:55:53.986Z,74.03
2022-11-16T00:58:25.111Z,74.25
2022-11-16T01:01:08.692Z,73.78
2022-11-16T01:03:40.285Z,73.83
2022-11-16T01:06:14.721Z,73.39
2022-11-16T01:08:46.204Z,73.60
2022-11-16T01:11:36.001Z,73.84
2022-11-16T01:14:09.209Z,73.63
2022-11-16T01:16:40.290Z,73.70
2022-11-16T01:19:11.555Z,73.37
2022-11-16T01:21:42.509Z,73.72
2022-11-16T01:24:13.366Z,73.90
2022-11-16T01:26:44.240Z,73.70
2022-11-16T01:29:15.684Z,73.70
2022-11-16T01:31:50.392Z,74.25
2022-11-16T01:34:22.092Z,74.54
2022-11-16T01:36:53.902Z,74.60
2022-11-16T01:39:25.005Z,74.72
2022-11-16T01:41:59.875Z,74.19
2022-11-16T01:45:08.051Z,73.93
2022-11-16T01:47:39.028Z,73.68
2022-11-16T01:50:15.220Z,73.74
2022-11-16T01:52:55.158Z,74.16
2022-11-16T01:55:29.521Z,73.50
2022-11-16T01:58:26.366Z,73.86
2022-11-16T02:01:02.797Z,74.53
2022-11-16T02:03:53.949Z,74.36
2022-11-16T02:06:47.056Z,74.18
2022-11-16T02:09:59.013Z,74.67
2022-11-16T02:12:54.726Z,74.72
2022-11-16T02:15:33.610Z,74.14
2022-11-16T02:18:22.380Z,73.94
2022-11-16T02:21:10.463Z,74.33
2022-11-16T02:24:03.694Z,74.12
2022-11-16T02:26:57.734Z,73.85
2022-11-16T02:29:35.484Z,73.92
2022-11-16T02:32:11.962Z,73.66
2022-11-16T02:34:46.264Z,73.18
2022-11-16T02:37:20.204Z,73.44
2022-11-16T02:39:54.213Z,73.61
2022-11-16T02:42:30.407Z,73.75
2022-11-16T02:45:04.145Z,73.86
2022-11-16T02:47:36.606Z,73.66
2022-11-16T02:50:12.025Z,73.51
2022-11-16T02:52:42.680Z,73.69
2022-11-16T02:55:14.642Z,73.71
2022-11-16T02:57:56.939Z,73.96
2022-11-16T03:00:32.454Z,73.88
2022-11-16T03:03:12.432Z,73.46
2022-11-16T03:05:49.347Z,73.52
2022-11-16T03:08:24.499Z,73.11
2022-11-16T03:11:16.608Z,73.37
2022-11-16T03:13:48.187Z,73.44
2022-11-16T03:16:24.126Z,73.21
2022-11-16T03:18:58.315Z,72.91
2022-11-16T03:21:34.157Z,73.28
2022-11-16T03:24:06.378Z,73.16
2022-11-16T03:26:47.523Z,72.85
2022-11-16T03:29:27.664Z,72.81
2022-11-16T03:32:04.700Z,73.28
2022-11-16T03:34:39.542Z,73.28
2022-11-16T03:37:11.611Z,73.60
2022-11-16T03:39:42.625Z,73.08
2022-11-16T03:42:15.162Z,73.11
2022-11-16T03:44:48.899Z,73.68
2022-11-16T03:47:19.562Z,73.95
2022-11-16T03:49:50.732Z,73.42
2022-11-16T03:52:29.875Z,73.31
2022-11-16T03:55:00.554Z,73.16
2022-11-16T03:57:31.551Z,72.97
2022-11-16T04:00:02.899Z,73.30
2022-11-16T04:02:43.941Z,73.48
2022-11-16T04:05:37.732Z,73.37
2022-11-16T04:08:29.595Z,73.59
2022-11-16T04:11:17.831Z,73.17
2022-11-16T04:14:09.528Z,73.22
2022-11-16T04:16:59.355Z,73.28
2022-11-16T04:19:47.587Z,73.31
2022-11-16T04:22:40.626Z,73.58
2022-11-16T04:25:16.768Z,73.55
2022-11-16T04:28:06.428Z,73.93
2022-11-16T04:30:51.019Z,74.09
2022-11-16T04:33:40.211Z,73.85
2022-11-16T04:36:29.455Z,73.54
2022-11-16T04:39:00.258Z,73.88
2022-11-16T04:41:49.871Z,73.70
2022-11-16T04:44:25.939Z,73.34
2022-11-16T04:47:08.383Z,73.74
2022-11-16T04:49:40.411Z,73.86
2022-11-16T04:52:11.366Z,73.83
2022-11-16T04:54:42.678Z,74.51
2022-11-16T04:57:13.439Z,74.45
2022-11-16T04:59:44.332Z,74.57
2022-11-16T05:02:15.314Z,74.76
2022-11-16T05:04:58.028Z,74.43
2022-11-16T05:07:29.382Z,74.26
2022-11-16T05:10:09.773Z,74.49
2022-11-16T05:12:40.422Z,74.62
2022-11-16T05:15:12.573Z,74.74
2022-11-16T05:17:43.354Z,74.87
2022-11-16T05:20:36.082Z,74.66
2022-11-16T05:23:27.842Z,74.53
2022-11-16T05:25:58.973Z,74.46
2022-11-16T05:28:29.796Z,74.61
2022-11-16T05:31:00.829Z,74.96
2022-11-16T05:33:31.984Z,74.67
2022-11-16T05:36:02.707Z,74.76
2022-11-16T05:38:33.872Z,74.93
2022-11-16T05:41:04.754Z,74.97
2022-11-16T05:43:35.395Z,74.98
2022-11-16T05:46:22.155Z,75.41
2022-11-16T05:48:53.139Z,76.10
2022-11-16T05:51:23.909Z,76.33
2022-11-16T05:53:55.313Z,76.40
2022-11-16T05:56:26.611Z,76.61
2022-11-16T05:58:58.241Z,76.69
2022-11-16T06:01:29.560Z,77.21
2022-11-16T06:04:02.015Z,77.20
2022-11-16T06:06:33.123Z,77.09
2022-11-16T06:09:05.048Z,76.90
2022-11-16T06:11:37.623Z,77.24
2022-11-16T06:14:09.224Z,77.09
2022-11-16T06:16:40.102Z,76.93
2022-11-16T06:19:12.141Z,76.54
2022-11-16T06:21:42.846Z,76.67
2022-11-16T06:24:18.342Z,76.90
2022-11-16T06:26:49.879Z,77.29
2022-11-16T06:29:21.527Z,77.23
2022-11-16T06:31:52.137Z,77.11
2022-11-16T06:34:22.859Z,76.71
2022-11-16T06:36:53.488Z,76.63
2022-11-16T06:39:24.517Z,76.71
2022-11-16T06:41:55.463Z,76.38
2022-11-16T06:44:26.679Z,76.76
2022-11-16T06:47:00.998Z,77.43
2022-11-16T06:49:32.246Z,77.32
2022-11-16T06:52:05.038Z,77.75
2022-11-16T06:54:35.901Z,77.74
2022-11-16T06:57:06.988Z,77.00
2022-11-16T06:59:37.983Z,77.14
2022-11-16T07:02:10.599Z,77.37
2022-11-16T07:04:41.472Z,77.18
2022-11-16T07:07:12.194Z,77.37
2022-11-16T07:09:44.590Z,77.49
2022-11-16T07:12:15.455Z,77.45
2022-11-16T07:14:46.492Z,77.28
2022-11-16T07:17:17.588Z,77.14
2022-11-16T07:19:48.786Z,76.87
2022-11-16T07:22:19.581Z,76.90
2022-11-16T07:24:51.304Z,77.08
2022-11-16T07:27:22.169Z,77.20
2022-11-16T07:29:54.209Z,76.95
2022-11-16T07:32:39.973Z,77.15
2022-11-16T07:35:28.820Z,77.02
2022-11-16T07:37:59.722Z,76.65
2022-11-16T07:40:30.344Z,76.94
2022-11-16T07:43:01.720Z,77.23
2022-11-16T07:45:41.389Z,77.23
2022-11-16T07:48:13.599Z,77.42
2022-11-16T07:51:22.889Z,77.32
2022-11-16T07:54:07.281Z,77.40
2022-11-16T07:56:37.945Z,77.94
2022-11-16T07:59:08.659Z,78.09
2022-11-16T08:01:42.474Z,77.96
2022-11-16T08:04:15.378Z,78.39
2022-11-16T08:06:50.934Z,78.73
2022-11-16T08:09:22.461Z,78.46
2022-11-16T08:11:53.506Z,78.81
2022-11-16T08:14:24.169Z,78.52
2022-11-16T08:16:55.874Z,78.54
2022-11-16T08:19:26.719Z,78.44
2022-11-16T08:21:57.345Z,78.78
2022-11-16T08:24:28.724Z,78.68
2022-11-16T08:26:59.429Z,79.06
2022-11-16T08:29:30.584Z,78.65
2022-11-16T08:32:01.458Z,78.60
2022-11-16T08:34:32.483Z,78.90
2022-11-16T08:37:03.813Z,78.86
2022-11-16T08:39:41.530Z,79.10
2022-11-16T08:42:12.399Z,78.84
2022-11-16T08:44:43.179Z,78.42
2022-11-16T08:47:16.673Z,78.46
2022-11-16T08:49:59.141Z,78.55
2022-11-16T08:52:31.127Z,78.90
2022-11-16T08:55:02.930Z,78.77
2022-11-16T08:57:34.001Z,78.91
2022-11-16T09:00:11.151Z,78.89
2022-11-16T09:02:41.769Z,78.83
2022-11-16T09:05:13.064Z,78.42
2022-11-16T09:07:45.728Z,78.39
2022-11-16T09:10:19.048Z,78.67
2022-11-16T09:12:49.728Z,78.30
2022-11-16T09:15:20.966Z,78.23
2022-11-16T09:17:54.884Z,78.05
2022-11-16T09:20:26.393Z,78.38
2022-11-16T09:22:57.365Z,78.67
2022-11-16T09:25:28.003Z,78.38
2022-11-16T09:27:58.943Z,78.58
2022-11-16T09:30:30.488Z,78.54
2022-11-16T09:33:02.013Z,78.02
2022-11-16T09:35:32.920Z,77.57
2022-11-16T09:38:03.562Z,78.03
2022-11-16T09:40:38.785Z,77.92
2022-11-16T09:43:20.813Z,78.22
2022-11-16T09:46:01.613Z,78.13
2022-11-16T09:48:36.739Z,78.14
2022-11-16T09:51:12.918Z,78.42
2022-11-16T09:53:46.608Z,78.34
2022-11-16T09:56:22.891Z,78.35
2022-11-16T09:59:00.260Z,78.86
2022-11-16T10:01:37.405Z,78.51
2022-11-16T10:04:12.291Z,78.25
2022-11-16T10:06:50.522Z,78.18
2022-11-16T10:09:21.795Z,78.13
2022-11-16T10:12:01.782Z,77.72
2022-11-16T10:14:50.611Z,77.25
2022-11-16T10:17:32.632Z,78.03
2022-11-16T10:20:19.222Z,77.70
2022-11-16T10:22:56.251Z,77.72
2022-11-16T10:25:34.052Z,76.99
2022-11-16T10:28:41.170Z,77.05
2022-11-16T10:31:19.720Z,76.81
2022-11-16T10:33:55.168Z,76.53
2022-11-16T10:36:30.321Z,76.61
2022-11-16T10:39:03.040Z,76.58
2022-11-16T10:41:39.030Z,76.60
2022-11-16T10:44:18.884Z,76.41
2022-11-16T10:46:58.497Z,76.07
2022-11-16T10:49:36.007Z,75.80
2022-11-16T10:52:06.912Z,75.86
2022-11-16T10:54:42.872Z,75.74
2022-11-16T10:57:14.974Z,75.57
2022-11-16T10:59:47.328Z,75.55
2022-11-16T11:02:33.615Z,75.80
2022-11-16T11:05:16.399Z,75.57
2022-11-16T11:07:55.345Z,75.53
2022-11-16T11:10:33.033Z,75.16
2022-11-16T11:13:22.223Z,75.02
2022-11-16T11:15:53.332Z,74.18
2022-11-16T11:18:29.808Z,74.14
2022-11-16T11:21:14.153Z,74.19
2022-11-16T11:23:48.747Z,74.45
2022-11-16T11:26:38.859Z,74.20
2022-11-16T11:29:23.446Z,74.94
2022-11-16T11:31:56.137Z,74.37
2022-11-16T11:34:29.438Z,74.93
2022-11-16T11:37:02.572Z,74.49
2022-11-16T11:39:35.871Z,74.24
2022-11-16T11:42:21.194Z,74.87
2022-11-16T11:44:57.406Z,75.00
2022-11-16T11:50:41.703Z,74.03
2022-11-16T11:53:25.883Z,74.01
2022-11-16T11:55:59.183Z,73.60
2022-11-16T11:58:33.885Z,73.31
2022-11-16T12:01:25.036Z,73.53
2022-11-16T12:04:28.307Z,73.57
2022-11-16T12:07:07.154Z,73.14
2022-11-16T12:09:47.393Z,73.64
2022-11-16T12:12:29.773Z,73.04
2022-11-16T12:15:16.834Z,73.19
2022-11-16T12:17:57.601Z,73.43
2022-11-16T12:20:39.887Z,73.55
2022-11-16T12:23:35.773Z,72.81
2022-11-16T12:26:14.582Z,72.29
2022-11-16T12:28:58.910Z,72.39
2022-11-16T12:31:47.592Z,73.00
2022-11-16T12:34:28.683Z,72.47
2022-11-16T12:37:06.081Z,72.06
2022-11-16T12:39:44.748Z,72.62
2022-11-16T12:42:35.102Z,72.80
2022-11-16T12:45:29.040Z,72.68
2022-11-16T12:48:26.160Z,72.47
2022-11-16T12:51:03.119Z,73.19
2022-11-16T12:54:05.196Z,73.38
2022-11-16T12:56:48.892Z,73.55
2022-11-16T12:59:44.063Z,73.22
2022-11-16T13:02:28.798Z,73.79
2022-11-16T13:05:04.029Z,73.73
2022-11-16T13:07:43.835Z,74.31
2022-11-16T13:10:19.776Z,74.62
2022-11-16T13:13:09.117Z,74.65
2022-11-16T13:15:47.814Z,75.31
2022-11-16T13:18:22.291Z,75.80
2022-11-16T13:21:00.341Z,75.73
2022-11-16T13:23:50.806Z,75.45
2022-11-16T13:26:30.304Z,75.33
2022-11-16T13:29:07.828Z,75.49
2022-11-16T13:31:49.237Z,75.81
2022-11-16T13:34:24.857Z,75.47
2022-11-16T13:36:55.838Z,75.36
2022-11-16T13:40:02.459Z,75.37
2022-11-16T13:42:35.831Z,75.02
2022-11-16T13:45:17.861Z,75.13
2022-11-16T13:47:54.330Z,75.61
2022-11-16T13:50:37.713Z,76.24
2022-11-16T13:56:06.735Z,76.55
2022-11-16T13:58:47.487Z,76.51
2022-11-16T14:01:19.578Z,76.35
2022-11-16T14:04:13.590Z,76.49
2022-11-16T14:07:01.236Z,75.98
2022-11-16T14:09:51.482Z,75.92
2022-11-16T14:12:53.187Z,76.11
2022-11-16T14:15:25.483Z,76.09
2022-11-16T14:17:59.235Z,76.46
2022-11-16T14:20:51.092Z,76.17
2022-11-16T14:23:50.140Z,75.58
2022-11-16T14:26:26.444Z,75.67
2022-11-16T14:29:34.369Z,75.49
2022-11-16T14:32:18.628Z,75.22
2022-11-16T14:34:51.267Z,75.02
2022-11-16T14:37:35.936Z,75.39
2022-11-16T14:40:14.401Z,75.21
2022-11-16T14:43:15.362Z,75.07
2022-11-16T14:45:49.992Z,75.16
2022-11-16T14:48:22.860Z,74.56
2022-11-16T14:51:07.500Z,74.96
2022-11-16T14:53:41.611Z,75.25
2022-11-16T14:56:14.292Z,75.65
2022-11-16T14:58:53.633Z,75.78
2022-11-16T15:01:27.625Z,75.62
2022-11-16T15:04:02.339Z,75.32
2022-11-16T15:06:39.396Z,75.05
2022-11-16T15:09:14.563Z,75.39
2022-11-16T15:12:05.761Z,75.44
2022-11-16T15:14:46.459Z,75.98
2022-11-16T15:17:20.593Z,75.46
2022-11-16T15:20:03.003Z,75.45
2022-11-16T15:22:40.998Z,75.16
2022-11-16T15:25:27.831Z,75.48
2022-11-16T15:28:00.379Z,76.29
2022-11-16T15:30:34.135Z,75.70
2022-11-16T15:33:11.531Z,76.18
2022-11-16T15:35:42.184Z,75.46
2022-11-16T15:38:17.693Z,76.20
2022-11-16T15:40:51.636Z,76.25
2022-11-16T15:43:24.595Z,76.11
2022-11-16T15:45:56.064Z,76.04
2022-11-16T15:48:28.475Z,76.01
2022-11-16T15:51:08.344Z,75.96
2022-11-16T15:53:41.085Z,75.80
2022-11-16T15:56:16.743Z,75.71
2022-11-16T15:58:47.615Z,75.96
2022-11-16T16:01:19.284Z,75.69
2022-11-16T16:03:58.646Z,76.07
2022-11-16T16:06:50.188Z,76.20
2022-11-16T16:09:31.506Z,76.07
2022-11-16T16:12:18.919Z,76.17
2022-11-16T16:14:50.879Z,76.04
2022-11-16T16:17:27.610Z,76.41
2022-11-16T16:20:00.698Z,76.04
2022-11-16T16:22:33.869Z,76.29
2022-11-16T16:25:04.752Z,75.84
2022-11-16T16:27:41.249Z,76.61
2022-11-16T16:30:17.000Z,76.48
2022-11-16T16:32:51.881Z,76.63
2022-11-16T16:35:24.779Z,76.62
2022-11-16T16:38:00.861Z,77.17
2022-11-16T16:40:31.951Z,77.18
2022-11-16T16:43:02.552Z,77.11
2022-11-16T16:45:38.839Z,77.42
2022-11-16T16:48:09.766Z,77.51
2022-11-16T16:50:40.716Z,77.65
2022-11-16T16:53:13.555Z,77.38
2022-11-16T16:55:46.019Z,77.47
2022-11-16T16:58:17.096Z,77.33
2022-11-16T17:00:47.758Z,76.81
2022-11-16T17:03:18.387Z,76.80
2022-11-16T17:05:49.020Z,76.95
2022-11-16T17:08:19.616Z,76.88
2022-11-16T17:10:53.992Z,77.22
2022-11-16T17:13:24.610Z,76.97
2022-11-16T17:15:55.317Z,76.95
2022-11-16T17:18:26.156Z,77.09
2022-11-16T17:20:56.758Z,76.97
2022-11-16T17:23:29.567Z,77.11
2022-11-16T17:26:00.200Z,76.78
2022-11-16T17:28:30.942Z,76.67
2022-11-16T17:31:05.141Z,76.70
2022-11-16T17:33:37.651Z,75.94
2022-11-16T17:36:10.075Z,76.45
2022-11-16T17:38:41.761Z,76.14
2022-11-16T17:41:14.468Z,76.13
2022-11-16T17:43:47.513Z,75.71
2022-11-16T17:46:19.881Z,75.97
2022-11-16T17:48:51.367Z,75.59
2022-11-16T17:51:24.007Z,75.30
2022-11-16T17:53:55.157Z,75.01
2022-11-16T17:56:27.271Z,75.08
2022-11-16T17:58:59.137Z,74.36
2022-11-16T18:01:29.930Z,74.81
2022-11-16T18:04:05.766Z,75.12
2022-11-16T18:06:36.393Z,75.04
2022-11-16T18:09:07.484Z,75.45
2022-11-16T18:11:39.738Z,75.69
2022-11-16T18:14:10.631Z,75.52
2022-11-16T18:16:43.366Z,75.97
2022-11-16T18:19:18.593Z,75.82
2022-11-16T18:21:49.520Z,76.07
2022-11-16T18:24:20.201Z,75.58
2022-11-16T18:26:50.843Z,75.64
2022-11-16T18:29:22.217Z,76.13
2022-11-16T18:31:52.809Z,75.77
2022-11-16T18:34:23.426Z,76.09
2022-11-16T18:36:54.055Z,75.83
2022-11-16T18:39:24.707Z,75.55
2022-11-16T18:41:56.004Z,75.63
2022-11-16T18:44:26.652Z,75.53
2022-11-16T18:46:57.332Z,75.30
2022-11-16T18:49:27.984Z,75.40
2022-11-16T18:51:58.563Z,75.52
2022-11-16T18:54:29.183Z,75.56
2022-11-16T18:56:59.826Z,75.45
2022-11-16T18:59:30.471Z,75.51
2022-11-16T19:02:01.219Z,75.73
2022-11-16T19:04:31.972Z,75.53
2022-11-16T19:07:02.700Z,75.66
2022-11-16T19:09:33.373Z,75.63
2022-11-16T19:12:03.971Z,75.20
2022-11-16T19:14:34.599Z,75.45
2022-11-16T19:17:05.333Z,75.18
2022-11-16T19:19:35.955Z,75.47
2022-11-16T19:22:06.611Z,75.57
2022-11-16T19:24:37.239Z,75.26
2022-11-16T19:27:07.870Z,75.19
2022-11-16T19:29:38.467Z,75.08
2022-11-16T19:32:09.236Z,74.90
2022-11-16T19:34:39.845Z,74.99
2022-11-16T19:37:10.805Z,74.71
2022-11-16T19:39:41.485Z,75.05
2022-11-16T19:42:12.081Z,74.97
2022-11-16T19:44:42.719Z,75.07
2022-11-16T19:47:15.724Z,75.21
2022-11-16T19:49:50.212Z,75.27
2022-11-16T19:52:21.174Z,74.50
2022-11-16T19:54:51.920Z,74.71
2022-11-16T19:57:25.027Z,74.40
2022-11-16T19:59:56.333Z,74.76
2022-11-16T20:02:34.514Z,74.57
2022-11-16T20:05:05.410Z,74.85
2022-11-16T20:07:38.671Z,75.06
2022-11-16T20:10:10.194Z,75.46
2022-11-16T20:12:41.131Z,75.00
2022-11-16T20:15:12.627Z,74.93
2022-11-16T20:17:43.226Z,75.39
2022-11-16T20:20:14.728Z,75.37
2022-11-16T20:22:45.721Z,75.14
2022-11-16T20:25:16.848Z,75.30
2022-11-16T20:27:47.662Z,75.44
2022-11-16T20:30:19.224Z,75.09
2022-11-16T20:32:49.900Z,74.89
2022-11-16T20:35:20.501Z,74.89
2022-11-16T20:37:51.132Z,75.48
2022-11-16T20:40:22.174Z,75.31
2022-11-16T20:42:52.786Z,75.29
2022-11-16T20:45:23.403Z,75.50
2022-11-16T20:47:54.040Z,75.41
2022-11-16T20:50:24.777Z,74.85
2022-11-16T20:52:55.541Z,74.98
2022-11-16T20:55:26.240Z,74.97
2022-11-16T20:57:57.033Z,74.90
2022-11-16T21:00:27.948Z,74.49
2022-11-16T21:02:58.589Z,74.58
2022-11-16T21:05:29.188Z,74.86
2022-11-16T21:08:00.445Z,74.75
2022-11-16T21:10:34.082Z,74.78
2022-11-16T21:13:22.155Z,75.01
2022-11-16T21:15:59.880Z,74.69
2022-11-16T21:18:31.099Z,74.60
2022-11-16T21:21:03.127Z,74.54
2022-11-16T21:23:35.228Z,74.77
2022-11-16T21:26:07.727Z,74.55
2022-11-16T21:28:38.795Z,74.55
2022-11-16T21:31:11.885Z,74.44
2022-11-16T21:33:42.574Z,74.32
2022-11-16T21:36:15.419Z,73.97
2022-11-16T21:38:46.320Z,74.13
2022-11-16T21:41:18.741Z,73.93
2022-11-16T21:43:49.436Z,74.06
2022-11-16T21:46:21.620Z,74.21
2022-11-16T21:48:52.911Z,73.86
2022-11-16T21:51:25.387Z,74.40
2022-11-16T21:53:56.466Z,74.19
2022-11-16T21:56:27.887Z,74.03
2022-11-16T21:58:58.612Z,74.23
2022-11-16T22:01:49.434Z,73.75
2022-11-16T22:04:37.720Z,73.63
2022-11-16T22:07:30.697Z,73.80
2022-11-16T22:10:01.712Z,73.83
2022-11-16T22:15:21.455Z,73.43
2022-11-16T22:17:52.497Z,73.92
2022-11-16T22:20:27.955Z,73.59
2022-11-16T22:22:58.837Z,73.75
2022-11-16T22:25:29.902Z,73.79
2022-11-16T22:28:21.368Z,73.69
2022-11-16T22:30:59.919Z,73.57
2022-11-16T22:33:31.185Z,73.24
2022-11-16T22:36:02.305Z,73.09
2022-11-16T22:38:34.567Z,72.96
2022-11-16T22:41:05.489Z,72.41
2022-11-16T22:43:37.786Z,72.44
2022-11-16T22:46:09.454Z,71.75
2022-11-16T22:48:42.085Z,72.42
2022-11-16T22:51:20.000Z,71.81
2022-11-16T22:53:53.156Z,71.71
2022-11-16T22:56:26.659Z,72.01
2022-11-16T22:58:57.983Z,71.60
2022-11-16T23:01:29.694Z,71.65
2022-11-16T23:04:06.849Z,71.13
2022-11-16T23:06:37.796Z,71.13
2022-11-16T23:09:08.717Z,71.34
2022-11-16T23:11:56.906Z,70.85
2022-11-16T23:14:45.420Z,71.02
2022-11-16T23:17:16.296Z,70.82
2022-11-16T23:20:17.780Z,70.51
2022-11-16T23:23:02.795Z,70.86
2022-11-16T23:25:51.418Z,71.05
2022-11-16T23:28:22.852Z,70.82
2022-11-16T23:30:53.747Z,70.87
2022-11-16T23:33:43.943Z,70.71
2022-11-16T23:36:15.523Z,70.59
2022-11-16T23:38:46.336Z,70.14
2022-11-16T23:41:31.053Z,70.38
2022-11-16T23:44:01.884Z,70.53
2022-11-16T23:46:34.256Z,70.25
2022-11-16T23:49:05.261Z,70.67
2022-11-16T23:51:36.137Z,69.76
2022-11-16T23:54:07.587Z,69.74
2022-11-16T23:56:38.462Z,69.48
2022-11-16T23:59:09.418Z,69.42
